sensor_id;sensor_type;location;lat;lon;timestamp;P1;durP1;ratioP1;P2;durP2;ratioP2
20181;SDS011;10250;50.756;6.172;2022-12-18T00:01:02;8.63;;;2.00;;
20181;SDS011;10250;50.756;6.172;2022-12-18T00:03:05;4.07;;;1.50;;
20181;SDS011;10250;50.756;6.172;2022-12-18T00:05:06;4.50;;;1.40;;
20181;SDS011;10250;50.756;6.172;2022-12-18T00:07:08;4.57;;;1.53;;
20181;SDS011;10250;50.756;6.172;2022-12-18T00:09:11;3.97;;;1.30;;
20181;SDS011;10250;50.756;6.172;2022-12-18T00:11:16;8.63;;;1.77;;
20181;SDS011;10250;50.756;6.172;2022-12-18T00:13:17;5.20;;;1.53;;
20181;SDS011;10250;50.756;6.172;2022-12-18T00:15:18;5.47;;;1.80;;
20181;SDS011;10250;50.756;6.172;2022-12-18T00:17:19;9.10;;;1.50;;
20181;SDS011;10250;50.756;6.172;2022-12-18T00:19:20;4.87;;;1.53;;
20181;SDS011;10250;50.756;6.172;2022-12-18T00:21:22;8.57;;;1.67;;
20181;SDS011;10250;50.756;6.172;2022-12-18T00:23:22;6.00;;;1.63;;
20181;SDS011;10250;50.756;6.172;2022-12-18T00:25:23;4.27;;;1.40;;
20181;SDS011;10250;50.756;6.172;2022-12-18T00:27:24;6.37;;;2.00;;
20181;SDS011;10250;50.756;6.172;2022-12-18T00:29:25;5.80;;;1.90;;
20181;SDS011;10250;50.756;6.172;2022-12-18T00:31:26;6.50;;;2.13;;
20181;SDS011;10250;50.756;6.172;2022-12-18T00:33:27;7.00;;;1.60;;
20181;SDS011;10250;50.756;6.172;2022-12-18T00:35:28;4.67;;;1.30;;
20181;SDS011;10250;50.756;6.172;2022-12-18T00:37:29;5.80;;;2.03;;
20181;SDS011;10250;50.756;6.172;2022-12-18T00:39:30;2.80;;;1.20;;
20181;SDS011;10250;50.756;6.172;2022-12-18T00:41:31;5.87;;;1.70;;
20181;SDS011;10250;50.756;6.172;2022-12-18T00:43:51;6.60;;;1.73;;
20181;SDS011;10250;50.756;6.172;2022-12-18T00:45:52;5.47;;;1.67;;
20181;SDS011;10250;50.756;6.172;2022-12-18T00:47:53;4.93;;;1.50;;
20181;SDS011;10250;50.756;6.172;2022-12-18T00:49:54;5.23;;;1.87;;
20181;SDS011;10250;50.756;6.172;2022-12-18T00:51:55;4.83;;;1.37;;
20181;SDS011;10250;50.756;6.172;2022-12-18T00:53:56;1.23;;;0.70;;
20181;SDS011;10250;50.756;6.172;2022-12-18T00:55:57;4.20;;;1.20;;
20181;SDS011;10250;50.756;6.172;2022-12-18T00:57:58;6.47;;;1.90;;
20181;SDS011;10250;50.756;6.172;2022-12-18T00:59:59;4.13;;;1.33;;
20181;SDS011;10250;50.756;6.172;2022-12-18T01:02:00;6.40;;;1.27;;
20181;SDS011;10250;50.756;6.172;2022-12-18T01:04:01;3.17;;;1.20;;
20181;SDS011;10250;50.756;6.172;2022-12-18T01:06:07;3.37;;;1.10;;
20181;SDS011;10250;50.756;6.172;2022-12-18T01:08:08;5.00;;;0.80;;
20181;SDS011;10250;50.756;6.172;2022-12-18T01:10:10;3.03;;;0.77;;
20181;SDS011;10250;50.756;6.172;2022-12-18T01:12:12;5.03;;;1.27;;
20181;SDS011;10250;50.756;6.172;2022-12-18T01:14:13;5.13;;;1.30;;
20181;SDS011;10250;50.756;6.172;2022-12-18T01:16:14;5.97;;;1.30;;
20181;SDS011;10250;50.756;6.172;2022-12-18T01:18:16;2.07;;;1.10;;
20181;SDS011;10250;50.756;6.172;2022-12-18T01:20:16;1.90;;;0.67;;
20181;SDS011;10250;50.756;6.172;2022-12-18T01:22:17;2.90;;;0.90;;
20181;SDS011;10250;50.756;6.172;2022-12-18T01:24:18;3.77;;;0.90;;
20181;SDS011;10250;50.756;6.172;2022-12-18T01:28:43;0.60;;;0.50;;
20181;SDS011;10250;50.756;6.172;2022-12-18T01:30:44;2.97;;;0.90;;
20181;SDS011;10250;50.756;6.172;2022-12-18T01:32:45;3.33;;;0.97;;
20181;SDS011;10250;50.756;6.172;2022-12-18T01:34:46;2.03;;;0.60;;
20181;SDS011;10250;50.756;6.172;2022-12-18T01:36:47;1.30;;;0.80;;
20181;SDS011;10250;50.756;6.172;2022-12-18T01:38:48;2.67;;;1.00;;
20181;SDS011;10250;50.756;6.172;2022-12-18T01:40:49;2.70;;;0.80;;
20181;SDS011;10250;50.756;6.172;2022-12-18T01:42:57;3.83;;;1.03;;
20181;SDS011;10250;50.756;6.172;2022-12-18T01:45:00;3.20;;;1.17;;
20181;SDS011;10250;50.756;6.172;2022-12-18T01:47:01;1.40;;;0.80;;
20181;SDS011;10250;50.756;6.172;2022-12-18T01:49:02;5.03;;;1.17;;
20181;SDS011;10250;50.756;6.172;2022-12-18T01:51:04;4.80;;;1.27;;
20181;SDS011;10250;50.756;6.172;2022-12-18T01:53:13;2.30;;;0.87;;
20181;SDS011;10250;50.756;6.172;2022-12-18T01:55:14;3.47;;;1.20;;
20181;SDS011;10250;50.756;6.172;2022-12-18T01:57:17;3.03;;;0.93;;
20181;SDS011;10250;50.756;6.172;2022-12-18T01:59:18;2.00;;;0.80;;
20181;SDS011;10250;50.756;6.172;2022-12-18T02:01:19;2.10;;;0.80;;
20181;SDS011;10250;50.756;6.172;2022-12-18T02:03:20;1.37;;;0.53;;
20181;SDS011;10250;50.756;6.172;2022-12-18T02:05:25;2.00;;;0.70;;
20181;SDS011;10250;50.756;6.172;2022-12-18T02:09:37;5.00;;;1.27;;
20181;SDS011;10250;50.756;6.172;2022-12-18T02:11:46;2.90;;;0.80;;
20181;SDS011;10250;50.756;6.172;2022-12-18T02:16:33;2.13;;;0.77;;
20181;SDS011;10250;50.756;6.172;2022-12-18T02:18:16;4.80;;;1.20;;
20181;SDS011;10250;50.756;6.172;2022-12-18T02:22:24;1.63;;;0.90;;
20181;SDS011;10250;50.756;6.172;2022-12-18T02:24:33;1.20;;;0.70;;
20181;SDS011;10250;50.756;6.172;2022-12-18T02:26:36;3.90;;;0.83;;
20181;SDS011;10250;50.756;6.172;2022-12-18T02:28:42;0.50;;;0.40;;
20181;SDS011;10250;50.756;6.172;2022-12-18T02:30:46;2.73;;;0.57;;
20181;SDS011;10250;50.756;6.172;2022-12-18T02:32:49;0.53;;;0.40;;
20181;SDS011;10250;50.756;6.172;2022-12-18T02:34:51;1.60;;;0.60;;
20181;SDS011;10250;50.756;6.172;2022-12-18T02:36:53;0.87;;;0.43;;
20181;SDS011;10250;50.756;6.172;2022-12-18T02:38:55;0.77;;;0.60;;
20181;SDS011;10250;50.756;6.172;2022-12-18T02:40:57;0.40;;;0.40;;
20181;SDS011;10250;50.756;6.172;2022-12-18T02:43:02;0.40;;;0.40;;
20181;SDS011;10250;50.756;6.172;2022-12-18T02:45:03;1.60;;;0.53;;
20181;SDS011;10250;50.756;6.172;2022-12-18T02:47:04;2.83;;;0.70;;
20181;SDS011;10250;50.756;6.172;2022-12-18T02:49:17;1.77;;;0.50;;
20181;SDS011;10250;50.756;6.172;2022-12-18T02:53:53;2.03;;;0.70;;
20181;SDS011;10250;50.756;6.172;2022-12-18T03:00:20;1.87;;;0.73;;
20181;SDS011;10250;50.756;6.172;2022-12-18T03:04:26;0.80;;;0.50;;
20181;SDS011;10250;50.756;6.172;2022-12-18T03:06:28;1.13;;;0.53;;
20181;SDS011;10250;50.756;6.172;2022-12-18T03:08:35;0.40;;;0.30;;
20181;SDS011;10250;50.756;6.172;2022-12-18T03:10:39;1.07;;;0.57;;
20181;SDS011;10250;50.756;6.172;2022-12-18T03:12:43;0.67;;;0.43;;
20181;SDS011;10250;50.756;6.172;2022-12-18T03:14:45;1.07;;;0.60;;
20181;SDS011;10250;50.756;6.172;2022-12-18T03:16:51;1.30;;;0.50;;
20181;SDS011;10250;50.756;6.172;2022-12-18T03:18:54;0.90;;;0.50;;
20181;SDS011;10250;50.756;6.172;2022-12-18T03:20:58;2.10;;;0.97;;
20181;SDS011;10250;50.756;6.172;2022-12-18T03:23:03;2.47;;;0.67;;
20181;SDS011;10250;50.756;6.172;2022-12-18T03:25:09;3.50;;;0.60;;
20181;SDS011;10250;50.756;6.172;2022-12-18T03:27:12;2.20;;;0.90;;
20181;SDS011;10250;50.756;6.172;2022-12-18T03:31:34;3.17;;;1.00;;
20181;SDS011;10250;50.756;6.172;2022-12-18T03:33:38;3.47;;;1.20;;
20181;SDS011;10250;50.756;6.172;2022-12-18T03:35:41;2.30;;;0.70;;
20181;SDS011;10250;50.756;6.172;2022-12-18T03:37:42;0.70;;;0.53;;
20181;SDS011;10250;50.756;6.172;2022-12-18T03:39:43;0.40;;;0.40;;
20181;SDS011;10250;50.756;6.172;2022-12-18T03:41:45;0.57;;;0.47;;
20181;SDS011;10250;50.756;6.172;2022-12-18T03:43:52;4.27;;;0.90;;
20181;SDS011;10250;50.756;6.172;2022-12-18T03:46:06;1.73;;;0.70;;
20181;SDS011;10250;50.756;6.172;2022-12-18T03:48:11;0.97;;;0.60;;
20181;SDS011;10250;50.756;6.172;2022-12-18T03:52:28;0.50;;;0.47;;
20181;SDS011;10250;50.756;6.172;2022-12-18T03:54:31;0.50;;;0.50;;
20181;SDS011;10250;50.756;6.172;2022-12-18T03:56:34;1.53;;;0.50;;
20181;SDS011;10250;50.756;6.172;2022-12-18T03:58:36;2.00;;;0.70;;
20181;SDS011;10250;50.756;6.172;2022-12-18T04:00:38;2.13;;;0.80;;
20181;SDS011;10250;50.756;6.172;2022-12-18T04:02:43;1.77;;;0.67;;
20181;SDS011;10250;50.756;6.172;2022-12-18T04:04:45;3.70;;;0.87;;
20181;SDS011;10250;50.756;6.172;2022-12-18T04:06:47;2.60;;;0.90;;
20181;SDS011;10250;50.756;6.172;2022-12-18T04:08:49;2.83;;;0.97;;
20181;SDS011;10250;50.756;6.172;2022-12-18T04:10:50;8.37;;;1.60;;
20181;SDS011;10250;50.756;6.172;2022-12-18T04:12:55;2.90;;;1.03;;
20181;SDS011;10250;50.756;6.172;2022-12-18T04:14:56;1.50;;;0.93;;
20181;SDS011;10250;50.756;6.172;2022-12-18T04:16:57;5.57;;;1.47;;
20181;SDS011;10250;50.756;6.172;2022-12-18T04:18:57;5.73;;;1.67;;
20181;SDS011;10250;50.756;6.172;2022-12-18T04:20:59;6.57;;;1.70;;
20181;SDS011;10250;50.756;6.172;2022-12-18T04:23:00;5.37;;;1.30;;
20181;SDS011;10250;50.756;6.172;2022-12-18T04:25:00;4.80;;;1.50;;
20181;SDS011;10250;50.756;6.172;2022-12-18T04:27:02;4.03;;;1.40;;
20181;SDS011;10250;50.756;6.172;2022-12-18T04:29:03;3.70;;;1.23;;
20181;SDS011;10250;50.756;6.172;2022-12-18T04:31:04;3.23;;;1.00;;
20181;SDS011;10250;50.756;6.172;2022-12-18T04:33:10;6.50;;;1.53;;
20181;SDS011;10250;50.756;6.172;2022-12-18T04:35:11;5.23;;;1.33;;
20181;SDS011;10250;50.756;6.172;2022-12-18T04:37:12;3.50;;;1.40;;
20181;SDS011;10250;50.756;6.172;2022-12-18T04:39:13;5.87;;;1.70;;
20181;SDS011;10250;50.756;6.172;2022-12-18T04:41:14;6.30;;;1.90;;
20181;SDS011;10250;50.756;6.172;2022-12-18T04:43:15;5.00;;;1.50;;
20181;SDS011;10250;50.756;6.172;2022-12-18T04:45:16;2.40;;;1.10;;
20181;SDS011;10250;50.756;6.172;2022-12-18T04:47:17;6.23;;;2.07;;
20181;SDS011;10250;50.756;6.172;2022-12-18T04:49:18;7.37;;;2.00;;
20181;SDS011;10250;50.756;6.172;2022-12-18T04:51:19;4.77;;;1.53;;
20181;SDS011;10250;50.756;6.172;2022-12-18T04:53:20;5.97;;;1.63;;
20181;SDS011;10250;50.756;6.172;2022-12-18T04:55:24;6.67;;;1.97;;
20181;SDS011;10250;50.756;6.172;2022-12-18T04:57:25;7.57;;;1.60;;
20181;SDS011;10250;50.756;6.172;2022-12-18T04:59:26;5.70;;;1.43;;
20181;SDS011;10250;50.756;6.172;2022-12-18T05:01:27;4.70;;;1.50;;
20181;SDS011;10250;50.756;6.172;2022-12-18T05:03:28;4.27;;;1.53;;
20181;SDS011;10250;50.756;6.172;2022-12-18T05:05:29;4.80;;;1.27;;
20181;SDS011;10250;50.756;6.172;2022-12-18T05:07:30;3.50;;;1.00;;
20181;SDS011;10250;50.756;6.172;2022-12-18T05:09:31;7.30;;;1.67;;
20181;SDS011;10250;50.756;6.172;2022-12-18T05:11:32;4.00;;;1.43;;
20181;SDS011;10250;50.756;6.172;2022-12-18T05:13:36;4.37;;;1.63;;
20181;SDS011;10250;50.756;6.172;2022-12-18T05:15:37;2.67;;;1.10;;
20181;SDS011;10250;50.756;6.172;2022-12-18T05:17:38;9.40;;;1.97;;
20181;SDS011;10250;50.756;6.172;2022-12-18T05:19:39;2.40;;;1.23;;
20181;SDS011;10250;50.756;6.172;2022-12-18T05:21:40;5.63;;;1.40;;
20181;SDS011;10250;50.756;6.172;2022-12-18T05:23:41;7.33;;;1.50;;
20181;SDS011;10250;50.756;6.172;2022-12-18T05:25:42;5.93;;;1.37;;
20181;SDS011;10250;50.756;6.172;2022-12-18T05:27:43;8.17;;;1.87;;
20181;SDS011;10250;50.756;6.172;2022-12-18T05:29:45;6.30;;;1.80;;
20181;SDS011;10250;50.756;6.172;2022-12-18T05:31:45;5.70;;;1.83;;
20181;SDS011;10250;50.756;6.172;2022-12-18T05:33:46;7.77;;;1.67;;
20181;SDS011;10250;50.756;6.172;2022-12-18T05:35:52;7.70;;;1.67;;
20181;SDS011;10250;50.756;6.172;2022-12-18T05:37:53;5.20;;;1.60;;
20181;SDS011;10250;50.756;6.172;2022-12-18T05:39:54;4.93;;;1.50;;
20181;SDS011;10250;50.756;6.172;2022-12-18T05:41:56;6.27;;;1.93;;
20181;SDS011;10250;50.756;6.172;2022-12-18T05:43:56;9.00;;;2.33;;
20181;SDS011;10250;50.756;6.172;2022-12-18T05:46:02;7.33;;;2.23;;
20181;SDS011;10250;50.756;6.172;2022-12-18T05:48:04;7.27;;;1.90;;
20181;SDS011;10250;50.756;6.172;2022-12-18T05:50:05;6.33;;;1.67;;
20181;SDS011;10250;50.756;6.172;2022-12-18T05:52:06;4.10;;;1.20;;
20181;SDS011;10250;50.756;6.172;2022-12-18T05:54:10;8.10;;;2.10;;
20181;SDS011;10250;50.756;6.172;2022-12-18T05:56:13;5.83;;;1.60;;
20181;SDS011;10250;50.756;6.172;2022-12-18T05:58:14;3.37;;;1.20;;
20181;SDS011;10250;50.756;6.172;2022-12-18T06:00:15;4.80;;;1.43;;
20181;SDS011;10250;50.756;6.172;2022-12-18T06:02:17;4.20;;;1.47;;
20181;SDS011;10250;50.756;6.172;2022-12-18T06:04:18;6.37;;;1.87;;
20181;SDS011;10250;50.756;6.172;2022-12-18T06:06:20;6.80;;;1.87;;
20181;SDS011;10250;50.756;6.172;2022-12-18T06:08:21;6.13;;;1.63;;
20181;SDS011;10250;50.756;6.172;2022-12-18T06:10:22;7.13;;;1.73;;
20181;SDS011;10250;50.756;6.172;2022-12-18T06:12:23;5.83;;;2.37;;
20181;SDS011;10250;50.756;6.172;2022-12-18T06:14:24;6.77;;;1.87;;
20181;SDS011;10250;50.756;6.172;2022-12-18T06:16:25;8.40;;;2.30;;
20181;SDS011;10250;50.756;6.172;2022-12-18T06:18:26;7.73;;;2.43;;
20181;SDS011;10250;50.756;6.172;2022-12-18T06:20:30;8.03;;;2.27;;
20181;SDS011;10250;50.756;6.172;2022-12-18T06:22:31;9.50;;;2.83;;
20181;SDS011;10250;50.756;6.172;2022-12-18T06:24:32;48.60;;;13.23;;
20181;SDS011;10250;50.756;6.172;2022-12-18T06:26:33;61.23;;;20.23;;
20181;SDS011;10250;50.756;6.172;2022-12-18T06:28:34;62.50;;;18.43;;
20181;SDS011;10250;50.756;6.172;2022-12-18T06:30:35;42.00;;;13.80;;
20181;SDS011;10250;50.756;6.172;2022-12-18T06:32:36;32.13;;;8.27;;
20181;SDS011;10250;50.756;6.172;2022-12-18T06:34:37;16.23;;;4.83;;
20181;SDS011;10250;50.756;6.172;2022-12-18T06:36:38;10.83;;;2.93;;
20181;SDS011;10250;50.756;6.172;2022-12-18T06:38:40;11.30;;;2.87;;
20181;SDS011;10250;50.756;6.172;2022-12-18T06:40:42;9.43;;;3.20;;
20181;SDS011;10250;50.756;6.172;2022-12-18T06:42:43;8.60;;;3.10;;
20181;SDS011;10250;50.756;6.172;2022-12-18T06:44:44;12.33;;;3.33;;
20181;SDS011;10250;50.756;6.172;2022-12-18T06:46:45;13.17;;;3.13;;
20181;SDS011;10250;50.756;6.172;2022-12-18T06:48:46;15.37;;;4.20;;
20181;SDS011;10250;50.756;6.172;2022-12-18T06:50:48;9.03;;;2.80;;
20181;SDS011;10250;50.756;6.172;2022-12-18T06:52:49;11.87;;;2.80;;
20181;SDS011;10250;50.756;6.172;2022-12-18T06:54:50;7.53;;;2.27;;
20181;SDS011;10250;50.756;6.172;2022-12-18T06:56:51;25.70;;;7.03;;
20181;SDS011;10250;50.756;6.172;2022-12-18T06:58:52;12.40;;;3.03;;
20181;SDS011;10250;50.756;6.172;2022-12-18T07:00:53;9.87;;;2.23;;
20181;SDS011;10250;50.756;6.172;2022-12-18T07:02:54;12.20;;;2.47;;
20181;SDS011;10250;50.756;6.172;2022-12-18T07:04:55;11.03;;;3.83;;
20181;SDS011;10250;50.756;6.172;2022-12-18T07:06:56;9.10;;;2.70;;
20181;SDS011;10250;50.756;6.172;2022-12-18T07:08:57;6.60;;;2.17;;
20181;SDS011;10250;50.756;6.172;2022-12-18T07:10:58;12.03;;;2.47;;
20181;SDS011;10250;50.756;6.172;2022-12-18T07:12:59;7.77;;;2.37;;
20181;SDS011;10250;50.756;6.172;2022-12-18T07:15:00;6.20;;;1.43;;
20181;SDS011;10250;50.756;6.172;2022-12-18T07:17:01;3.93;;;1.37;;
20181;SDS011;10250;50.756;6.172;2022-12-18T07:19:02;8.13;;;2.57;;
20181;SDS011;10250;50.756;6.172;2022-12-18T07:21:06;5.27;;;1.70;;
20181;SDS011;10250;50.756;6.172;2022-12-18T07:23:08;7.83;;;2.20;;
20181;SDS011;10250;50.756;6.172;2022-12-18T07:25:09;7.63;;;2.20;;
20181;SDS011;10250;50.756;6.172;2022-12-18T07:27:10;4.53;;;1.67;;
20181;SDS011;10250;50.756;6.172;2022-12-18T07:29:11;6.57;;;1.60;;
20181;SDS011;10250;50.756;6.172;2022-12-18T07:31:16;2.63;;;0.87;;
20181;SDS011;10250;50.756;6.172;2022-12-18T07:33:17;4.00;;;1.23;;
20181;SDS011;10250;50.756;6.172;2022-12-18T07:35:18;7.60;;;2.13;;
20181;SDS011;10250;50.756;6.172;2022-12-18T07:37:19;4.97;;;1.43;;
20181;SDS011;10250;50.756;6.172;2022-12-18T07:39:20;5.00;;;1.77;;
20181;SDS011;10250;50.756;6.172;2022-12-18T07:41:21;5.83;;;1.50;;
20181;SDS011;10250;50.756;6.172;2022-12-18T07:43:22;3.80;;;1.33;;
20181;SDS011;10250;50.756;6.172;2022-12-18T07:45:23;11.10;;;2.30;;
20181;SDS011;10250;50.756;6.172;2022-12-18T07:47:24;4.67;;;1.50;;
20181;SDS011;10250;50.756;6.172;2022-12-18T07:49:25;5.83;;;1.87;;
20181;SDS011;10250;50.756;6.172;2022-12-18T07:51:26;10.80;;;2.93;;
20181;SDS011;10250;50.756;6.172;2022-12-18T07:53:27;3.53;;;1.37;;
20181;SDS011;10250;50.756;6.172;2022-12-18T07:55:31;2.63;;;1.27;;
20181;SDS011;10250;50.756;6.172;2022-12-18T07:57:32;6.57;;;2.07;;
20181;SDS011;10250;50.756;6.172;2022-12-18T07:59:34;7.27;;;1.60;;
20181;SDS011;10250;50.756;6.172;2022-12-18T08:01:35;5.03;;;1.70;;
20181;SDS011;10250;50.756;6.172;2022-12-18T08:03:36;5.93;;;1.87;;
20181;SDS011;10250;50.756;6.172;2022-12-18T08:05:37;6.73;;;2.33;;
20181;SDS011;10250;50.756;6.172;2022-12-18T08:07:38;9.63;;;1.90;;
20181;SDS011;10250;50.756;6.172;2022-12-18T08:09:40;9.10;;;2.13;;
20181;SDS011;10250;50.756;6.172;2022-12-18T08:11:40;7.33;;;2.30;;
20181;SDS011;10250;50.756;6.172;2022-12-18T08:13:41;6.30;;;1.70;;
20181;SDS011;10250;50.756;6.172;2022-12-18T08:15:42;5.83;;;2.00;;
20181;SDS011;10250;50.756;6.172;2022-12-18T08:17:43;7.33;;;2.23;;
20181;SDS011;10250;50.756;6.172;2022-12-18T08:19:44;7.47;;;2.33;;
20181;SDS011;10250;50.756;6.172;2022-12-18T08:21:45;7.83;;;2.17;;
20181;SDS011;10250;50.756;6.172;2022-12-18T08:23:46;8.07;;;2.40;;
20181;SDS011;10250;50.756;6.172;2022-12-18T08:25:47;7.10;;;2.10;;
20181;SDS011;10250;50.756;6.172;2022-12-18T08:27:49;8.47;;;2.30;;
20181;SDS011;10250;50.756;6.172;2022-12-18T08:29:50;4.93;;;1.53;;
20181;SDS011;10250;50.756;6.172;2022-12-18T08:31:51;9.60;;;2.53;;
20181;SDS011;10250;50.756;6.172;2022-12-18T08:33:52;7.83;;;2.50;;
20181;SDS011;10250;50.756;6.172;2022-12-18T08:35:53;8.37;;;2.60;;
20181;SDS011;10250;50.756;6.172;2022-12-18T08:37:54;13.77;;;2.77;;
20181;SDS011;10250;50.756;6.172;2022-12-18T08:39:55;12.07;;;2.40;;
20181;SDS011;10250;50.756;6.172;2022-12-18T08:41:56;13.20;;;2.90;;
20181;SDS011;10250;50.756;6.172;2022-12-18T08:44:16;9.23;;;2.63;;
20181;SDS011;10250;50.756;6.172;2022-12-18T08:46:37;10.13;;;2.57;;
20181;SDS011;10250;50.756;6.172;2022-12-18T08:48:38;11.83;;;2.83;;
20181;SDS011;10250;50.756;6.172;2022-12-18T08:50:40;10.87;;;2.90;;
20181;SDS011;10250;50.756;6.172;2022-12-18T08:52:41;8.47;;;2.53;;
20181;SDS011;10250;50.756;6.172;2022-12-18T08:54:42;8.43;;;2.77;;
20181;SDS011;10250;50.756;6.172;2022-12-18T08:56:43;7.73;;;2.60;;
20181;SDS011;10250;50.756;6.172;2022-12-18T08:58:44;11.13;;;3.27;;
20181;SDS011;10250;50.756;6.172;2022-12-18T09:00:44;7.30;;;2.53;;
20181;SDS011;10250;50.756;6.172;2022-12-18T09:02:45;11.43;;;2.87;;
20181;SDS011;10250;50.756;6.172;2022-12-18T09:04:47;9.93;;;3.60;;
20181;SDS011;10250;50.756;6.172;2022-12-18T09:06:48;6.57;;;2.10;;
20181;SDS011;10250;50.756;6.172;2022-12-18T09:08:49;10.60;;;2.63;;
20181;SDS011;10250;50.756;6.172;2022-12-18T09:10:50;8.57;;;2.70;;
20181;SDS011;10250;50.756;6.172;2022-12-18T09:12:51;8.97;;;2.33;;
20181;SDS011;10250;50.756;6.172;2022-12-18T09:14:52;5.27;;;1.77;;
20181;SDS011;10250;50.756;6.172;2022-12-18T09:16:53;12.90;;;3.87;;
20181;SDS011;10250;50.756;6.172;2022-12-18T09:18:57;7.93;;;2.30;;
20181;SDS011;10250;50.756;6.172;2022-12-18T09:21:07;11.70;;;2.87;;
20181;SDS011;10250;50.756;6.172;2022-12-18T09:23:08;7.30;;;2.10;;
20181;SDS011;10250;50.756;6.172;2022-12-18T09:25:09;7.60;;;2.50;;
20181;SDS011;10250;50.756;6.172;2022-12-18T09:27:10;11.13;;;2.60;;
20181;SDS011;10250;50.756;6.172;2022-12-18T09:29:11;7.70;;;2.10;;
20181;SDS011;10250;50.756;6.172;2022-12-18T09:31:12;9.60;;;2.27;;
20181;SDS011;10250;50.756;6.172;2022-12-18T09:33:14;9.23;;;2.13;;
20181;SDS011;10250;50.756;6.172;2022-12-18T09:35:15;8.50;;;2.33;;
20181;SDS011;10250;50.756;6.172;2022-12-18T09:37:16;8.63;;;2.40;;
20181;SDS011;10250;50.756;6.172;2022-12-18T09:39:17;10.00;;;2.57;;
20181;SDS011;10250;50.756;6.172;2022-12-18T09:43:24;9.77;;;2.43;;
20181;SDS011;10250;50.756;6.172;2022-12-18T09:45:27;9.50;;;2.93;;
20181;SDS011;10250;50.756;6.172;2022-12-18T09:47:29;7.83;;;2.17;;
20181;SDS011;10250;50.756;6.172;2022-12-18T09:49:31;8.07;;;2.30;;
20181;SDS011;10250;50.756;6.172;2022-12-18T09:51:35;13.13;;;3.37;;
20181;SDS011;10250;50.756;6.172;2022-12-18T09:53:37;9.80;;;2.70;;
20181;SDS011;10250;50.756;6.172;2022-12-18T09:55:40;8.67;;;3.20;;
20181;SDS011;10250;50.756;6.172;2022-12-18T09:57:45;7.83;;;2.37;;
20181;SDS011;10250;50.756;6.172;2022-12-18T09:59:53;11.70;;;2.90;;
20181;SDS011;10250;50.756;6.172;2022-12-18T10:01:54;10.57;;;3.33;;
20181;SDS011;10250;50.756;6.172;2022-12-18T10:03:56;12.80;;;3.80;;
20181;SDS011;10250;50.756;6.172;2022-12-18T10:06:07;10.50;;;2.63;;
20181;SDS011;10250;50.756;6.172;2022-12-18T10:12:55;10.43;;;2.60;;
20181;SDS011;10250;50.756;6.172;2022-12-18T10:15:04;11.93;;;2.80;;
20181;SDS011;10250;50.756;6.172;2022-12-18T10:19:22;15.20;;;4.10;;
20181;SDS011;10250;50.756;6.172;2022-12-18T10:21:25;11.37;;;3.57;;
20181;SDS011;10250;50.756;6.172;2022-12-18T10:23:42;12.90;;;3.73;;
20181;SDS011;10250;50.756;6.172;2022-12-18T10:27:51;11.47;;;3.03;;
20181;SDS011;10250;50.756;6.172;2022-12-18T10:29:53;13.50;;;3.63;;
20181;SDS011;10250;50.756;6.172;2022-12-18T10:31:54;10.00;;;3.20;;
20181;SDS011;10250;50.756;6.172;2022-12-18T10:33:55;7.77;;;2.80;;
20181;SDS011;10250;50.756;6.172;2022-12-18T10:35:56;11.83;;;2.93;;
20181;SDS011;10250;50.756;6.172;2022-12-18T10:40:12;9.40;;;2.63;;
20181;SDS011;10250;50.756;6.172;2022-12-18T10:42:17;11.00;;;3.10;;
20181;SDS011;10250;50.756;6.172;2022-12-18T10:44:19;10.07;;;2.70;;
20181;SDS011;10250;50.756;6.172;2022-12-18T10:46:21;9.70;;;2.87;;
20181;SDS011;10250;50.756;6.172;2022-12-18T10:48:22;11.57;;;3.53;;
20181;SDS011;10250;50.756;6.172;2022-12-18T10:50:28;13.53;;;4.00;;
20181;SDS011;10250;50.756;6.172;2022-12-18T10:52:29;6.47;;;2.23;;
20181;SDS011;10250;50.756;6.172;2022-12-18T10:54:30;10.77;;;3.00;;
20181;SDS011;10250;50.756;6.172;2022-12-18T10:56:33;11.00;;;2.90;;
20181;SDS011;10250;50.756;6.172;2022-12-18T10:58:35;9.27;;;2.17;;
20181;SDS011;10250;50.756;6.172;2022-12-18T11:00:36;5.93;;;2.00;;
20181;SDS011;10250;50.756;6.172;2022-12-18T11:02:37;6.57;;;2.27;;
20181;SDS011;10250;50.756;6.172;2022-12-18T11:04:50;5.70;;;1.80;;
20181;SDS011;10250;50.756;6.172;2022-12-18T11:06:56;8.27;;;2.33;;
20181;SDS011;10250;50.756;6.172;2022-12-18T11:09:04;10.97;;;2.23;;
20181;SDS011;10250;50.756;6.172;2022-12-18T11:11:17;8.97;;;2.17;;
20181;SDS011;10250;50.756;6.172;2022-12-18T11:13:23;9.97;;;2.80;;
20181;SDS011;10250;50.756;6.172;2022-12-18T11:15:26;12.07;;;3.13;;
20181;SDS011;10250;50.756;6.172;2022-12-18T11:17:32;10.13;;;3.43;;
20181;SDS011;10250;50.756;6.172;2022-12-18T11:19:38;10.90;;;3.10;;
20181;SDS011;10250;50.756;6.172;2022-12-18T11:21:40;8.47;;;2.60;;
20181;SDS011;10250;50.756;6.172;2022-12-18T11:23:46;12.53;;;3.30;;
20181;SDS011;10250;50.756;6.172;2022-12-18T11:25:52;14.33;;;3.77;;
20181;SDS011;10250;50.756;6.172;2022-12-18T11:32:22;10.20;;;3.43;;
20181;SDS011;10250;50.756;6.172;2022-12-18T11:34:26;11.20;;;3.30;;
20181;SDS011;10250;50.756;6.172;2022-12-18T11:36:29;11.43;;;3.37;;
20181;SDS011;10250;50.756;6.172;2022-12-18T11:38:32;7.70;;;2.80;;
20181;SDS011;10250;50.756;6.172;2022-12-18T11:40:35;11.17;;;2.90;;
20181;SDS011;10250;50.756;6.172;2022-12-18T11:42:58;10.73;;;3.43;;
20181;SDS011;10250;50.756;6.172;2022-12-18T11:45:02;9.10;;;2.63;;
20181;SDS011;10250;50.756;6.172;2022-12-18T11:49:35;10.07;;;3.00;;
20181;SDS011;10250;50.756;6.172;2022-12-18T11:51:58;11.30;;;2.77;;
20181;SDS011;10250;50.756;6.172;2022-12-18T11:53:57;11.83;;;3.17;;
20181;SDS011;10250;50.756;6.172;2022-12-18T11:56:03;10.30;;;3.43;;
20181;SDS011;10250;50.756;6.172;2022-12-18T11:58:18;9.87;;;2.60;;
20181;SDS011;10250;50.756;6.172;2022-12-18T12:00:22;12.30;;;3.17;;
20181;SDS011;10250;50.756;6.172;2022-12-18T12:04:37;11.00;;;3.13;;
20181;SDS011;10250;50.756;6.172;2022-12-18T12:13:21;10.30;;;3.00;;
20181;SDS011;10250;50.756;6.172;2022-12-18T12:17:32;12.47;;;3.77;;
20181;SDS011;10250;50.756;6.172;2022-12-18T12:19:42;14.57;;;4.27;;
20181;SDS011;10250;50.756;6.172;2022-12-18T12:26:01;15.77;;;4.90;;
20181;SDS011;10250;50.756;6.172;2022-12-18T12:30:55;12.23;;;2.97;;
20181;SDS011;10250;50.756;6.172;2022-12-18T12:39:18;6.93;;;1.90;;
20181;SDS011;10250;50.756;6.172;2022-12-18T12:41:22;8.70;;;2.50;;
20181;SDS011;10250;50.756;6.172;2022-12-18T12:43:44;5.87;;;1.43;;
20181;SDS011;10250;50.756;6.172;2022-12-18T12:47:56;8.53;;;2.37;;
20181;SDS011;10250;50.756;6.172;2022-12-18T12:49:59;10.33;;;2.67;;
20181;SDS011;10250;50.756;6.172;2022-12-18T12:52:11;7.87;;;1.60;;
20181;SDS011;10250;50.756;6.172;2022-12-18T12:54:17;8.10;;;2.00;;
20181;SDS011;10250;50.756;6.172;2022-12-18T12:56:20;5.50;;;1.60;;
20181;SDS011;10250;50.756;6.172;2022-12-18T13:00:36;8.80;;;1.50;;
20181;SDS011;10250;50.756;6.172;2022-12-18T13:05:08;7.73;;;1.93;;
20181;SDS011;10250;50.756;6.172;2022-12-18T13:07:18;6.63;;;2.10;;
20181;SDS011;10250;50.756;6.172;2022-12-18T13:09:21;13.27;;;3.00;;
20181;SDS011;10250;50.756;6.172;2022-12-18T13:13:49;6.63;;;1.93;;
20181;SDS011;10250;50.756;6.172;2022-12-18T13:16:04;6.67;;;1.73;;
20181;SDS011;10250;50.756;6.172;2022-12-18T13:20:11;6.37;;;1.67;;
20181;SDS011;10250;50.756;6.172;2022-12-18T13:22:23;6.83;;;2.07;;
20181;SDS011;10250;50.756;6.172;2022-12-18T13:24:26;6.60;;;1.60;;
20181;SDS011;10250;50.756;6.172;2022-12-18T13:26:28;6.40;;;1.70;;
20181;SDS011;10250;50.756;6.172;2022-12-18T13:32:35;12.37;;;3.33;;
20181;SDS011;10250;50.756;6.172;2022-12-18T13:34:36;14.23;;;3.93;;
20181;SDS011;10250;50.756;6.172;2022-12-18T13:36:37;13.77;;;4.03;;
20181;SDS011;10250;50.756;6.172;2022-12-18T13:38:38;13.90;;;3.83;;
20181;SDS011;10250;50.756;6.172;2022-12-18T13:42:41;13.53;;;4.27;;